Valiant — WCY6766 — position and weather

sailwx.info

Track history (hours):
 
Tides and Currents Weather Stations Pressure Air Temp Water Temp Dewpoint Dewpoint Depression Visibility Wind Speed Wind Dir Waves Ship Positions

Valiant

Owner: PENN MARITIME INC, SEATTLE, WA. More information available from US FCC via Universal Licensing System and Coast Guard Vessel Documentation Center.

Last reported at 2016-Apr-30 16:07 UTC. Time now 2016-May-03 18:16 UTC.
Position N 29°40' W 089°57'.

Length 172 m; draft 7.2 m.

Type: Tanker. MMSI: 369350000.

Date/timePositionNaut miles runAvg speedWind from/ knotsBaromVisibWave heightAir tempDewpointWater temp
2016-Apr-30 16:07N 29°40' W 089°57'712.2
2016-Apr-30 15:33N 29°46' W 090°02'8 8.2
2016-Apr-30 14:33N 29°53' W 089°57'0 0.1
2016-Apr-30 13:33N 29°53' W 089°57'0 0.0
2016-Apr-30 12:33N 29°53' W 089°57'0 0.0
2016-Apr-30 11:33N 29°53' W 089°57'0 0.0
2016-Apr-30 10:33N 29°53' W 089°57'0 0.0
2016-Apr-30 09:33N 29°53' W 089°57'0 0.0
2016-Apr-30 08:33N 29°53' W 089°57'0 0.0
2016-Apr-30 07:33N 29°53' W 089°57'0 0.0
2016-Apr-30 06:33N 29°53' W 089°57'0 0.0
2016-Apr-30 05:33N 29°53' W 089°57'0 0.0
2016-Apr-30 04:33N 29°53' W 089°57'0 0.0
2016-Apr-30 03:33N 29°53' W 089°57'1 0.8
2016-Apr-30 02:32N 29°52' W 089°56'8 7.6
2016-Apr-30 01:33N 29°57' W 090°02'13 0.6
2016-Apr-29 03:15N 29°58' W 090°18'3 4.7
2016-Apr-29 02:32N 29°57' W 090°14'4 4.4
2016-Apr-29 01:33N 29°57' W 090°09'4 4.3
2016-Apr-29 00:33N 29°55' W 090°04'3 3.3
2016-Apr-28 23:33N 29°57' W 090°01'8 5.5
2016-Apr-28 22:11N 29°52' W 089°55'2 3.0
2016-Apr-28 21:33N 29°53' W 089°57'0 0.0
2016-Apr-28 20:33N 29°53' W 089°57'0 0.0
2016-Apr-28 19:33N 29°53' W 089°57'0 0.0
2016-Apr-28 18:33N 29°53' W 089°57'0 0.0
2016-Apr-28 17:32N 29°53' W 089°57'0 0.0
2016-Apr-28 16:33N 29°53' W 089°57'0 0.0
2016-Apr-28 15:33N 29°53' W 089°57'0 0.0
2016-Apr-28 14:33N 29°53' W 089°57'  
Track history (hours):
 
Tides and Currents Weather Stations Pressure Air Temp Water Temp Dewpoint Dewpoint Depression Visibility Wind Speed Wind Dir Waves Ship Positions

Valiant

Owner: PENN MARITIME INC, SEATTLE, WA. More information available from US FCC via Universal Licensing System and Coast Guard Vessel Documentation Center.

Last reported at 2016-Apr-30 16:07 UTC. Time now 2016-May-03 18:16 UTC.
Position N 29°40' W 089°57'.

Length 172 m; draft 7.2 m.

Type: Tanker. MMSI: 369350000.

Date/timePositionNaut miles runAvg speedWind from/ knotsBaromVisibWave heightAir tempDewpointWater temp
2016-Apr-30 16:07N 29°40' W 089°57'712.2
2016-Apr-30 15:33N 29°46' W 090°02'8 8.2
2016-Apr-30 14:33N 29°53' W 089°57'0 0.1
2016-Apr-30 13:33N 29°53' W 089°57'0 0.0
2016-Apr-30 12:33N 29°53' W 089°57'0 0.0
2016-Apr-30 11:33N 29°53' W 089°57'0 0.0
2016-Apr-30 10:33N 29°53' W 089°57'0 0.0
2016-Apr-30 09:33N 29°53' W 089°57'0 0.0
2016-Apr-30 08:33N 29°53' W 089°57'0 0.0
2016-Apr-30 07:33N 29°53' W 089°57'0 0.0
2016-Apr-30 06:33N 29°53' W 089°57'0 0.0
2016-Apr-30 05:33N 29°53' W 089°57'0 0.0
2016-Apr-30 04:33N 29°53' W 089°57'0 0.0
2016-Apr-30 03:33N 29°53' W 089°57'1 0.8
2016-Apr-30 02:32N 29°52' W 089°56'8 7.6
2016-Apr-30 01:33N 29°57' W 090°02'13 0.6
2016-Apr-29 03:15N 29°58' W 090°18'3 4.7
2016-Apr-29 02:32N 29°57' W 090°14'4 4.4
2016-Apr-29 01:33N 29°57' W 090°09'4 4.3
2016-Apr-29 00:33N 29°55' W 090°04'3 3.3
2016-Apr-28 23:33N 29°57' W 090°01'8 5.5
2016-Apr-28 22:11N 29°52' W 089°55'2 3.0
2016-Apr-28 21:33N 29°53' W 089°57'0 0.0
2016-Apr-28 20:33N 29°53' W 089°57'0 0.0
2016-Apr-28 19:33N 29°53' W 089°57'0 0.0
2016-Apr-28 18:33N 29°53' W 089°57'0 0.0
2016-Apr-28 17:32N 29°53' W 089°57'0 0.0
2016-Apr-28 16:33N 29°53' W 089°57'0 0.0
2016-Apr-28 15:33N 29°53' W 089°57'0 0.0
2016-Apr-28 14:33N 29°53' W 089°57'  

Dump ship's entire track history